Terminal Aerodrome Forecast
Issued by NWS

Home | Current Version | Previous Version | Text Only | Print | Product List | Glossary Off
Versions: 1 2 3 4 5 6 7 8 9 10 11 12 13 14 15 16 17 18 19 20 21 22 23

000
FTUS42 KMHX 251100
TAFOAJ
TAF
KOAJ 251121Z 2512/2612 22003KT P6SM VCSH BKN050
     FM251500 26007KT 5SM BR VCSH OVC015
     FM251900 31004KT 4SM -RA BR OVC010
     FM260200 03005KT 4SM -RA BR OVC005
      AMD LTD TO CLD VIS AND WIND=

USA.gov is the U.S. government's official web portal to all federal, state and local government web resources and services.